createdAt,value
2018-12-31T00:01:09.277Z,12.60
2018-12-31T00:06:13.262Z,12.60
2018-12-31T00:08:42.253Z,12.57
2018-12-31T00:11:11.235Z,12.87
2018-12-31T00:13:40.215Z,11.70
2018-12-31T00:16:09.204Z,12.07
2018-12-31T00:18:38.255Z,13.57
2018-12-31T00:21:07.235Z,12.83
2018-12-31T00:23:36.220Z,12.13
2018-12-31T00:26:05.190Z,12.87
2018-12-31T00:28:34.179Z,12.63
2018-12-31T00:31:03.158Z,12.17
2018-12-31T00:33:32.136Z,12.10
2018-12-31T00:36:01.101Z,12.90
2018-12-31T00:38:30.087Z,12.90
2018-12-31T00:40:59.122Z,13.07
2018-12-31T00:43:28.103Z,14.10
2018-12-31T00:45:57.062Z,12.50
2018-12-31T00:48:26.055Z,12.17
2018-12-31T00:50:55.007Z,12.23
2018-12-31T00:53:29.651Z,11.80
2018-12-31T00:55:58.654Z,12.00
2018-12-31T00:58:27.646Z,10.67
2018-12-31T01:00:56.619Z,12.90
2018-12-31T01:03:25.607Z,12.03
2018-12-31T01:05:54.574Z,11.73
2018-12-31T01:08:23.610Z,11.90
2018-12-31T01:10:52.661Z,11.63
2018-12-31T01:13:21.658Z,10.57
2018-12-31T01:15:50.665Z,11.53
2018-12-31T01:18:19.626Z,10.97
2018-12-31T01:20:48.671Z,11.33
2018-12-31T01:23:17.660Z,10.83
2018-12-31T01:25:46.651Z,10.67
2018-12-31T01:28:15.633Z,10.40
2018-12-31T01:30:44.670Z,11.50
2018-12-31T01:33:13.651Z,10.90
2018-12-31T01:35:42.635Z,11.57
2018-12-31T01:38:11.632Z,10.97
2018-12-31T01:40:40.591Z,11.53
2018-12-31T01:43:09.582Z,11.77
2018-12-31T01:45:38.547Z,11.80
2018-12-31T01:50:41.822Z,10.77
2018-12-31T01:53:10.871Z,12.07
2018-12-31T01:55:39.843Z,11.70
2018-12-31T01:58:08.831Z,11.13
2018-12-31T02:00:37.811Z,11.40
2018-12-31T02:03:06.785Z,12.23
2018-12-31T02:05:35.752Z,11.87
2018-12-31T02:08:04.809Z,10.83
2018-12-31T02:10:33.775Z,11.53
2018-12-31T02:13:02.759Z,10.80
2018-12-31T02:15:31.756Z,10.17
2018-12-31T02:18:00.719Z,10.80
2018-12-31T02:20:29.700Z,11.20
2018-12-31T02:22:58.680Z,11.27
2018-12-31T02:25:27.666Z,10.60
2018-12-31T02:27:56.632Z,10.03
2018-12-31T02:30:25.627Z,10.70
2018-12-31T02:32:54.601Z,11.67
2018-12-31T02:35:23.588Z,10.17
2018-12-31T02:37:52.563Z,10.27
2018-12-31T02:40:21.548Z,11.13
2018-12-31T02:42:50.582Z,11.90
2018-12-31T02:45:19.587Z,10.40
2018-12-31T02:47:48.552Z,10.87
2018-12-31T02:50:17.540Z,10.30
2018-12-31T02:52:46.511Z,10.50
2018-12-31T02:55:15.610Z,10.60
2018-12-31T02:57:44.583Z,11.03
2018-12-31T03:00:13.575Z,10.10
2018-12-31T03:02:42.543Z,10.00
2018-12-31T03:05:11.531Z,11.30
2018-12-31T03:07:40.499Z,10.33
2018-12-31T03:10:09.506Z,10.53
2018-12-31T03:12:38.470Z,11.17
2018-12-31T03:15:07.544Z,10.50
2018-12-31T03:17:36.510Z,10.47
2018-12-31T03:20:05.680Z,9.57
2018-12-31T03:22:34.802Z,9.97
2018-12-31T03:25:03.861Z,9.70
2018-12-31T03:27:32.826Z,11.60
2018-12-31T03:30:01.825Z,10.77
2018-12-31T03:32:30.808Z,10.47
2018-12-31T03:34:59.848Z,11.03
2018-12-31T03:37:28.819Z,10.80
2018-12-31T03:39:57.806Z,10.33
2018-12-31T03:42:26.777Z,10.57
2018-12-31T03:44:55.775Z,9.50
2018-12-31T03:47:24.748Z,10.13
2018-12-31T03:49:53.715Z,8.20
2018-12-31T03:52:22.699Z,9.93
2018-12-31T03:54:51.683Z,9.30
2018-12-31T03:57:20.665Z,8.47
2018-12-31T03:59:49.623Z,7.57
2018-12-31T04:02:18.706Z,8.30
2018-12-31T04:04:47.714Z,7.70
2018-12-31T04:07:16.700Z,7.83
2018-12-31T04:09:45.672Z,7.83
2018-12-31T04:12:14.648Z,7.73
2018-12-31T04:14:43.608Z,7.33
2018-12-31T04:17:12.574Z,7.10
2018-12-31T04:19:41.581Z,7.03
2018-12-31T04:22:10.542Z,7.43
2018-12-31T04:24:39.507Z,7.27
2018-12-31T04:27:08.525Z,6.80
2018-12-31T04:29:37.495Z,6.33
2018-12-31T04:32:06.451Z,7.10
2018-12-31T04:34:35.435Z,7.53
2018-12-31T04:37:04.468Z,6.87
2018-12-31T04:39:33.451Z,6.70
2018-12-31T04:42:02.435Z,6.87
2018-12-31T04:44:31.399Z,6.47
2018-12-31T04:47:00.368Z,7.20
2018-12-31T04:49:29.335Z,6.97
2018-12-31T04:51:58.312Z,6.67
2018-12-31T04:54:27.280Z,7.23
2018-12-31T04:56:56.339Z,6.73
2018-12-31T04:59:25.311Z,7.10
2018-12-31T05:01:54.291Z,6.93
2018-12-31T05:04:23.319Z,6.63
2018-12-31T05:06:52.319Z,7.20
2018-12-31T05:09:21.283Z,7.93
2018-12-31T05:11:50.264Z,7.53
2018-12-31T05:14:19.242Z,6.93
2018-12-31T05:16:48.208Z,7.63
2018-12-31T05:19:17.206Z,7.70
2018-12-31T05:21:46.179Z,7.73
2018-12-31T05:24:15.153Z,7.60
2018-12-31T05:26:44.131Z,7.60
2018-12-31T05:29:13.110Z,6.37
2018-12-31T05:31:42.084Z,7.00
2018-12-31T05:34:11.060Z,7.37
2018-12-31T05:36:40.037Z,7.60
2018-12-31T05:39:09.020Z,7.43
2018-12-31T05:41:37.978Z,6.70
2018-12-31T05:44:06.962Z,6.77
2018-12-31T05:46:35.926Z,7.07
2018-12-31T05:49:04.892Z,6.97
2018-12-31T05:51:33.880Z,6.77
2018-12-31T05:54:02.839Z,7.43
2018-12-31T05:56:31.816Z,7.40
2018-12-31T05:59:00.775Z,6.80
2018-12-31T06:01:29.757Z,6.77
2018-12-31T06:03:58.714Z,7.70
2018-12-31T06:06:27.675Z,7.13
2018-12-31T06:08:56.660Z,7.23
2018-12-31T06:11:25.632Z,7.37
2018-12-31T06:13:54.621Z,7.20
2018-12-31T06:16:23.587Z,6.60
2018-12-31T06:18:52.553Z,7.37
2018-12-31T06:21:21.531Z,6.27
2018-12-31T06:23:50.492Z,7.00
2018-12-31T06:26:19.471Z,7.27
2018-12-31T06:28:48.434Z,7.10
2018-12-31T06:31:17.419Z,6.40
2018-12-31T06:33:46.387Z,7.37
2018-12-31T06:36:15.358Z,6.97
2018-12-31T06:38:44.344Z,7.10
2018-12-31T06:41:13.322Z,6.87
2018-12-31T06:43:42.283Z,6.67
2018-12-31T06:46:11.263Z,8.07
2018-12-31T06:48:40.227Z,7.50
2018-12-31T06:51:09.261Z,8.90
2018-12-31T06:53:38.243Z,8.03
2018-12-31T06:56:07.222Z,8.13
2018-12-31T06:58:36.179Z,8.17
2018-12-31T07:01:05.169Z,8.33
2018-12-31T07:03:34.165Z,8.33
2018-12-31T07:06:03.132Z,9.77
2018-12-31T07:08:32.111Z,9.17
2018-12-31T07:11:01.074Z,9.10
2018-12-31T07:13:30.070Z,9.10
2018-12-31T07:15:59.046Z,9.23
2018-12-31T07:18:28.030Z,9.30
2018-12-31T07:20:57.002Z,9.67
2018-12-31T07:23:26.306Z,9.50
2018-12-31T07:25:55.274Z,9.77
2018-12-31T07:28:24.260Z,11.07
2018-12-31T07:30:53.253Z,10.03
2018-12-31T07:33:22.244Z,9.67
2018-12-31T07:35:51.215Z,10.07
2018-12-31T07:38:20.207Z,10.60
2018-12-31T07:40:49.189Z,10.57
2018-12-31T07:45:53.179Z,10.70
2018-12-31T07:48:22.169Z,11.40
2018-12-31T07:50:51.144Z,11.50
2018-12-31T07:55:54.419Z,11.67
2018-12-31T07:58:23.408Z,11.80
2018-12-31T08:00:52.377Z,12.03
2018-12-31T08:03:21.372Z,12.47
2018-12-31T08:05:50.334Z,11.67
2018-12-31T08:08:19.332Z,12.40
2018-12-31T08:10:48.339Z,12.67
2018-12-31T08:13:17.355Z,12.03
2018-12-31T08:15:46.357Z,13.07
2018-12-31T08:18:15.412Z,12.57
2018-12-31T08:20:44.409Z,11.87
2018-12-31T08:23:13.378Z,12.80
2018-12-31T08:25:42.355Z,11.57
2018-12-31T08:28:11.349Z,11.73
2018-12-31T08:30:40.327Z,10.00
2018-12-31T08:33:09.320Z,9.33
2018-12-31T08:35:38.294Z,8.70
2018-12-31T08:38:07.275Z,7.97
2018-12-31T08:40:36.234Z,7.80
2018-12-31T08:43:05.243Z,8.20
2018-12-31T08:45:34.212Z,8.57
2018-12-31T08:48:03.205Z,7.97
2018-12-31T08:50:32.190Z,7.63
2018-12-31T08:53:01.157Z,8.60
2018-12-31T08:58:05.162Z,8.60
2018-12-31T09:00:34.128Z,8.30
2018-12-31T09:03:03.115Z,7.90
2018-12-31T09:05:32.097Z,7.93
2018-12-31T09:08:01.131Z,7.77
2018-12-31T09:10:30.112Z,8.47
2018-12-31T09:12:59.091Z,8.77
2018-12-31T09:15:28.068Z,7.97
2018-12-31T09:17:57.050Z,8.40
2018-12-31T09:20:26.036Z,8.40
2018-12-31T09:22:55.079Z,8.33
2018-12-31T09:25:24.058Z,7.27
2018-12-31T09:27:53.040Z,8.50
2018-12-31T09:30:22.022Z,7.53
2018-12-31T09:32:51.007Z,8.07
2018-12-31T09:35:19.987Z,8.33
2018-12-31T09:37:48.960Z,8.57
2018-12-31T09:40:17.930Z,8.60
2018-12-31T09:42:46.914Z,8.00
2018-12-31T09:45:15.886Z,8.30
2018-12-31T09:47:44.891Z,7.93
2018-12-31T09:52:48.443Z,8.77
2018-12-31T09:55:17.447Z,9.40
2018-12-31T09:57:46.424Z,8.00
2018-12-31T10:00:15.410Z,8.53
2018-12-31T10:02:44.391Z,8.80
2018-12-31T10:05:13.375Z,9.10
2018-12-31T10:07:42.343Z,9.03
2018-12-31T10:10:11.335Z,8.37
2018-12-31T10:12:40.287Z,9.30
2018-12-31T10:15:09.355Z,9.13
2018-12-31T10:17:38.323Z,8.97
2018-12-31T10:20:07.543Z,8.60
2018-12-31T10:22:36.544Z,9.80
2018-12-31T10:25:05.591Z,9.23
2018-12-31T10:27:34.579Z,8.93
2018-12-31T10:30:03.790Z,9.10
2018-12-31T10:32:32.765Z,8.73
2018-12-31T10:37:36.391Z,7.53
2018-12-31T10:40:08.402Z,7.90
2018-12-31T10:42:37.879Z,7.67
2018-12-31T10:45:06.859Z,7.77
2018-12-31T10:47:35.832Z,7.77
2018-12-31T10:50:04.983Z,7.60
2018-12-31T10:52:33.932Z,8.27
2018-12-31T10:55:02.924Z,8.50
2018-12-31T10:57:31.885Z,8.20
2018-12-31T11:00:00.866Z,8.70
2018-12-31T11:02:29.838Z,7.87
2018-12-31T11:04:58.812Z,8.73
2018-12-31T11:07:27.807Z,7.80
2018-12-31T11:09:56.774Z,8.70
2018-12-31T11:12:25.758Z,8.83
2018-12-31T11:14:54.730Z,8.67
2018-12-31T11:17:23.718Z,8.90
2018-12-31T11:19:52.695Z,7.70
2018-12-31T11:22:21.670Z,8.20
2018-12-31T11:24:50.658Z,8.40
2018-12-31T11:27:19.615Z,7.70
2018-12-31T11:29:48.600Z,7.93
2018-12-31T11:32:17.573Z,8.37
2018-12-31T11:34:46.555Z,8.23
2018-12-31T11:37:15.538Z,9.07
2018-12-31T11:39:44.504Z,8.33
2018-12-31T11:42:13.483Z,8.83
2018-12-31T11:44:42.454Z,9.00
2018-12-31T11:47:11.436Z,8.07
2018-12-31T11:49:40.399Z,9.30
2018-12-31T11:52:09.382Z,9.30
2018-12-31T11:54:39.341Z,8.23
2018-12-31T11:57:08.533Z,8.73
2018-12-31T11:59:37.529Z,8.23
2018-12-31T12:02:06.582Z,7.73
2018-12-31T12:04:35.539Z,8.37
2018-12-31T12:07:04.608Z,8.57
2018-12-31T12:09:33.558Z,8.27
2018-12-31T12:12:02.537Z,8.47
2018-12-31T12:14:31.519Z,9.00
2018-12-31T12:17:00.521Z,8.63
2018-12-31T12:19:29.484Z,9.03
2018-12-31T12:21:58.483Z,7.90
2018-12-31T12:24:27.459Z,8.77
2018-12-31T12:26:56.438Z,7.90
2018-12-31T12:29:25.403Z,7.43
2018-12-31T12:31:54.423Z,7.80
2018-12-31T12:34:23.386Z,7.83
2018-12-31T12:36:52.357Z,8.73
2018-12-31T12:39:21.342Z,8.33
2018-12-31T12:41:50.326Z,8.00
2018-12-31T12:44:19.322Z,8.20
2018-12-31T12:46:48.307Z,7.97
2018-12-31T12:49:17.283Z,8.20
2018-12-31T12:51:46.248Z,8.00
2018-12-31T12:54:15.230Z,8.30
2018-12-31T12:56:44.195Z,7.67
2018-12-31T12:59:13.179Z,7.90
2018-12-31T13:01:42.160Z,8.00
2018-12-31T13:04:11.126Z,8.57
2018-12-31T13:06:40.103Z,9.13
2018-12-31T13:09:09.081Z,8.20
2018-12-31T13:11:38.079Z,8.40
2018-12-31T13:14:07.036Z,8.13
2018-12-31T13:16:36.023Z,7.87
2018-12-31T13:19:05.090Z,8.00
2018-12-31T13:21:34.063Z,6.83
2018-12-31T13:24:03.099Z,7.70
2018-12-31T13:26:32.127Z,6.97
2018-12-31T13:29:01.343Z,7.60
2018-12-31T13:31:30.331Z,7.87
2018-12-31T13:33:59.303Z,7.57
2018-12-31T13:36:28.295Z,6.90
2018-12-31T13:38:57.259Z,8.03
2018-12-31T13:41:26.235Z,6.70
2018-12-31T13:43:55.200Z,7.53
2018-12-31T13:46:24.205Z,7.70
2018-12-31T13:48:53.159Z,7.73
2018-12-31T13:51:22.136Z,6.77
2018-12-31T13:53:51.478Z,7.60
2018-12-31T13:56:20.467Z,7.97
2018-12-31T13:58:49.440Z,6.93
2018-12-31T14:01:18.429Z,6.80
2018-12-31T14:03:47.379Z,6.97
2018-12-31T14:06:16.739Z,7.30
2018-12-31T14:08:45.702Z,6.80
2018-12-31T14:11:14.681Z,6.53
2018-12-31T14:13:43.654Z,6.37
2018-12-31T14:16:12.618Z,7.03
2018-12-31T14:18:42.179Z,6.83
2018-12-31T14:21:11.173Z,6.47
2018-12-31T14:23:40.158Z,7.03
2018-12-31T14:26:09.129Z,6.70
2018-12-31T14:28:38.127Z,6.73
2018-12-31T14:31:07.464Z,8.57
2018-12-31T14:33:36.446Z,7.13
2018-12-31T14:36:05.430Z,7.57
2018-12-31T14:38:35.351Z,7.50
2018-12-31T14:41:04.409Z,6.80
2018-12-31T14:43:33.463Z,8.13
2018-12-31T14:46:02.438Z,7.53
2018-12-31T14:48:31.492Z,7.10
2018-12-31T14:51:00.485Z,7.80
2018-12-31T14:53:29.518Z,7.53
2018-12-31T14:55:58.863Z,7.97
2018-12-31T14:58:27.862Z,8.40
2018-12-31T15:00:56.839Z,8.30
2018-12-31T15:03:25.832Z,7.93
2018-12-31T15:05:54.790Z,7.97
2018-12-31T15:08:23.779Z,8.53
2018-12-31T15:10:52.758Z,8.97
2018-12-31T15:13:21.775Z,10.30
2018-12-31T15:15:50.742Z,10.13
2018-12-31T15:18:20.008Z,9.90
2018-12-31T15:20:48.978Z,9.57
2018-12-31T15:23:17.970Z,8.80
2018-12-31T15:25:46.947Z,9.10
2018-12-31T15:28:15.944Z,9.50
2018-12-31T15:30:44.942Z,9.40
2018-12-31T15:33:14.298Z,9.77
2018-12-31T15:35:43.278Z,10.30
2018-12-31T15:38:12.324Z,9.63
2018-12-31T15:40:41.308Z,9.77
2018-12-31T15:43:10.298Z,9.80
2018-12-31T15:45:39.569Z,9.67
2018-12-31T15:48:08.538Z,9.60
2018-12-31T15:50:37.688Z,10.27
2018-12-31T15:53:06.746Z,9.87
2018-12-31T15:55:35.722Z,11.10
2018-12-31T15:58:04.899Z,10.37
2018-12-31T16:00:33.895Z,9.97
2018-12-31T16:03:02.905Z,11.03
2018-12-31T16:05:31.871Z,11.93
2018-12-31T16:08:00.857Z,11.33
2018-12-31T16:10:30.359Z,11.57
2018-12-31T16:12:59.378Z,11.67
2018-12-31T16:15:28.350Z,10.67
2018-12-31T16:17:57.363Z,10.23
2018-12-31T16:20:26.318Z,12.13
2018-12-31T16:22:55.818Z,12.27
2018-12-31T16:25:24.782Z,11.73
2018-12-31T16:27:53.770Z,11.07
2018-12-31T16:30:22.747Z,11.50
2018-12-31T16:32:51.723Z,12.43
2018-12-31T16:35:21.334Z,11.93
2018-12-31T16:37:50.372Z,12.57
2018-12-31T16:40:19.358Z,11.53
2018-12-31T16:42:48.319Z,13.53
2018-12-31T16:45:17.298Z,13.73
2018-12-31T16:47:46.766Z,11.27
2018-12-31T16:50:15.766Z,22.97
2018-12-31T16:52:44.751Z,19.03
2018-12-31T16:55:13.816Z,22.87
2018-12-31T16:57:42.786Z,21.37
2018-12-31T17:00:12.067Z,20.83
2018-12-31T17:02:41.047Z,17.67
2018-12-31T17:05:10.023Z,16.23
2018-12-31T17:07:39.007Z,17.63
2018-12-31T17:10:09.814Z,17.60
2018-12-31T17:12:39.294Z,24.13
2018-12-31T17:15:08.363Z,26.23
2018-12-31T17:17:37.355Z,74.50
2018-12-31T17:20:06.871Z,59.50
2018-12-31T17:22:35.862Z,62.27
2018-12-31T17:25:05.372Z,77.27
2018-12-31T17:27:34.348Z,38.30
2018-12-31T17:30:03.414Z,41.63
2018-12-31T17:32:32.403Z,23.93
2018-12-31T17:35:01.461Z,23.47
2018-12-31T17:37:30.961Z,21.77
2018-12-31T17:39:59.957Z,21.47
2018-12-31T17:42:28.944Z,24.97
2018-12-31T17:44:57.942Z,25.87
2018-12-31T17:47:26.913Z,28.30
2018-12-31T17:49:55.900Z,23.13
2018-12-31T17:52:24.872Z,21.50
2018-12-31T17:54:53.878Z,20.27
2018-12-31T17:57:22.893Z,20.87
2018-12-31T17:59:51.942Z,21.57
2018-12-31T18:02:20.910Z,19.13
2018-12-31T18:04:49.940Z,18.60
2018-12-31T18:07:18.915Z,18.43
2018-12-31T18:09:48.007Z,20.07
2018-12-31T18:12:16.996Z,18.13
2018-12-31T18:14:45.982Z,18.97
2018-12-31T18:17:15.046Z,17.37
2018-12-31T18:19:44.062Z,16.83
2018-12-31T18:22:13.051Z,16.33
2018-12-31T18:24:54.623Z,16.70
2018-12-31T18:27:23.589Z,17.73
2018-12-31T18:29:52.606Z,18.67
2018-12-31T18:32:21.575Z,18.27
2018-12-31T18:34:50.586Z,17.87
2018-12-31T18:37:19.562Z,18.40
2018-12-31T18:39:49.382Z,18.87
2018-12-31T18:42:18.983Z,18.07
2018-12-31T18:44:47.974Z,18.60
2018-12-31T18:47:17.068Z,17.87
2018-12-31T18:49:46.057Z,17.23
2018-12-31T18:52:15.032Z,18.40
2018-12-31T18:54:44.020Z,19.50
2018-12-31T18:57:13.020Z,18.43
2018-12-31T18:59:42.059Z,19.07
2018-12-31T19:02:11.060Z,18.43
2018-12-31T19:04:40.046Z,20.03
2018-12-31T19:07:09.100Z,20.80
2018-12-31T19:09:38.079Z,21.27
2018-12-31T19:12:07.050Z,21.67
2018-12-31T19:14:36.031Z,20.03
2018-12-31T19:17:05.199Z,18.67
2018-12-31T19:19:34.174Z,17.93
2018-12-31T19:22:03.144Z,19.30
2018-12-31T19:24:32.155Z,18.07
2018-12-31T19:27:01.154Z,18.13
2018-12-31T19:29:30.605Z,17.27
2018-12-31T19:31:59.594Z,18.00
2018-12-31T19:34:28.649Z,18.27
2018-12-31T19:36:57.660Z,18.13
2018-12-31T19:39:26.628Z,18.10
2018-12-31T19:41:55.915Z,18.40
2018-12-31T19:44:24.882Z,242.17
2018-12-31T19:46:53.890Z,62.57
2018-12-31T19:49:22.865Z,33.90
2018-12-31T19:51:51.877Z,27.33
2018-12-31T19:54:20.851Z,20.00
2018-12-31T19:56:49.832Z,19.93
2018-12-31T19:59:18.804Z,18.97
2018-12-31T20:01:47.791Z,18.93
2018-12-31T20:04:16.758Z,19.97
2018-12-31T20:06:45.755Z,21.60
2018-12-31T20:09:14.745Z,20.83
2018-12-31T20:11:43.787Z,21.90
2018-12-31T20:14:12.773Z,21.93
2018-12-31T20:16:41.750Z,20.43
2018-12-31T20:19:10.753Z,19.00
2018-12-31T20:21:39.725Z,19.97
2018-12-31T20:24:08.728Z,18.37
2018-12-31T20:26:37.706Z,18.87
2018-12-31T20:29:06.685Z,19.33
2018-12-31T20:31:35.668Z,19.27
2018-12-31T20:34:05.041Z,19.57
2018-12-31T20:36:34.086Z,21.60
2018-12-31T20:39:04.758Z,20.87
2018-12-31T20:41:33.745Z,20.33
2018-12-31T20:44:02.788Z,20.77
2018-12-31T20:46:31.815Z,21.03
2018-12-31T20:49:00.784Z,24.27
2018-12-31T20:51:29.785Z,23.27
2018-12-31T20:53:58.753Z,23.87
2018-12-31T20:56:27.747Z,22.70
2018-12-31T20:58:56.722Z,20.97
2018-12-31T21:01:26.374Z,24.10
2018-12-31T21:03:55.358Z,24.00
2018-12-31T21:06:24.327Z,24.03
2018-12-31T21:08:53.327Z,23.73
2018-12-31T21:11:22.289Z,21.93
2018-12-31T21:13:51.559Z,22.00
2018-12-31T21:16:20.552Z,22.10
2018-12-31T21:18:49.600Z,22.33
2018-12-31T21:21:18.588Z,22.27
2018-12-31T21:23:47.565Z,22.37
2018-12-31T21:26:16.553Z,22.27
2018-12-31T21:28:45.528Z,21.57
2018-12-31T21:31:14.631Z,22.10
2018-12-31T21:33:43.623Z,21.87
2018-12-31T21:36:12.584Z,21.23
2018-12-31T21:38:41.582Z,21.97
2018-12-31T21:41:10.557Z,21.43
2018-12-31T21:43:39.542Z,21.00
2018-12-31T21:46:08.523Z,22.07
2018-12-31T21:48:37.534Z,22.03
2018-12-31T21:51:06.514Z,22.20
2018-12-31T21:53:35.885Z,21.70
2018-12-31T21:56:04.862Z,23.00
2018-12-31T21:58:33.847Z,20.97
2018-12-31T22:01:02.815Z,23.60
2018-12-31T22:03:31.813Z,22.40
2018-12-31T22:06:00.815Z,23.20
2018-12-31T22:08:29.782Z,21.97
2018-12-31T22:10:58.830Z,21.90
2018-12-31T22:13:27.827Z,20.93
2018-12-31T22:15:56.799Z,21.70
2018-12-31T22:18:25.798Z,20.70
2018-12-31T22:20:54.842Z,22.80
2018-12-31T22:23:23.822Z,21.97
2018-12-31T22:25:52.817Z,22.57
2018-12-31T22:28:21.842Z,21.90
2018-12-31T22:30:50.799Z,25.93
2018-12-31T22:33:19.816Z,25.33
2018-12-31T22:35:48.797Z,25.63
2018-12-31T22:38:17.778Z,24.63
2018-12-31T22:40:46.754Z,80.87
2018-12-31T22:43:15.777Z,123.13
2018-12-31T22:45:45.298Z,118.67
2018-12-31T22:48:14.298Z,88.53
2018-12-31T22:50:43.391Z,100.10
2018-12-31T22:53:12.390Z,83.77
2018-12-31T22:55:41.363Z,76.50
2018-12-31T22:58:10.357Z,74.17
2018-12-31T23:00:39.774Z,66.77
2018-12-31T23:03:08.774Z,298.83
2018-12-31T23:05:37.819Z,201.10
2018-12-31T23:08:06.837Z,473.43
2018-12-31T23:10:35.881Z,507.33
2018-12-31T23:13:04.888Z,429.37
2018-12-31T23:15:34.304Z,291.23
2018-12-31T23:18:03.293Z,213.10
2018-12-31T23:20:32.294Z,497.47
2018-12-31T23:23:01.708Z,563.03
2018-12-31T23:25:30.688Z,489.70
2018-12-31T23:27:59.687Z,661.87
2018-12-31T23:30:28.667Z,635.40
2018-12-31T23:32:57.667Z,811.13
2018-12-31T23:35:27.138Z,842.20
2018-12-31T23:37:56.130Z,804.37
2018-12-31T23:40:25.114Z,738.23
2018-12-31T23:42:54.101Z,642.43
2018-12-31T23:45:23.082Z,631.73
2018-12-31T23:47:52.455Z,637.80
2018-12-31T23:50:21.449Z,607.43
2018-12-31T23:52:50.448Z,593.47
2018-12-31T23:55:19.522Z,526.77
2018-12-31T23:57:48.535Z,491.77
